Time;durP1;ratioP1;P1;durP2;ratioP2;P2;SDS_P1;SDS_P2;PMS_P1;PMS_P2;Temp;Humidity;BMP_temperature;BMP_pressure;BME280_temperature;BME280_humidity;BME280_pressure;Samples;Min_cycle;Max_cycle;Signal;HPM_P1;HPM_P2
2022/12/16 00:01:25;;;;;;;42.90;19.60;;;;;;;0.72;100.00;99654.25;101012;1311;139880;-48
2022/12/16 00:03:53;;;;;;;36.60;20.20;;;;;;;0.69;100.00;99652.72;105131;1325;22134;-49
2022/12/16 00:06:21;;;;;;;41.90;20.60;;;;;;;0.68;100.00;99648.88;105594;1310;138519;-49
2022/12/16 00:08:48;;;;;;;40.90;20.20;;;;;;;0.67;100.00;99655.41;105849;1311;188145;-49
2022/12/16 00:11:15;;;;;;;40.50;20.90;;;;;;;0.67;100.00;99659.54;106049;1312;22141;-49
2022/12/16 00:13:42;;;;;;;37.00;21.20;;;;;;;0.63;100.00;99657.12;105655;1315;139965;-49
2022/12/16 00:16:11;;;;;;;41.10;22.80;;;;;;;0.66;100.00;99662.50;105819;1315;22159;-49
2022/12/16 00:18:38;;;;;;;42.20;24.70;;;;;;;0.63;100.00;99666.42;105922;1312;137857;-49
2022/12/16 00:21:05;;;;;;;44.90;23.00;;;;;;;0.63;100.00;99664.31;105835;1315;23004;-50
2022/12/16 00:23:31;;;;;;;;;;;;;;;0.63;100.00;99661.84;105842;1307;138663;-49
2022/12/16 00:25:59;;;;;;;43.40;21.80;;;;;;;0.62;100.00;99657.88;105841;1315;22158;-49
2022/12/16 00:28:26;;;;;;;41.40;22.40;;;;;;;0.55;100.00;99653.70;105947;1315;22996;-49
2022/12/16 00:30:53;;;;;;;;;;;;;;;0.59;100.00;99662.98;105923;1313;139843;-49
2022/12/16 00:33:21;;;;;;;;;;;;;;;0.61;100.00;99660.50;105845;1312;23246;-49
2022/12/16 00:35:47;;;;;;;36.30;20.10;;;;;;;0.62;100.00;99666.04;106033;1309;125014;-49
2022/12/16 00:38:14;;;;;;;37.00;20.50;;;;;;;0.63;100.00;99662.50;106184;1310;23865;-49
2022/12/16 00:40:41;;;;;;;35.80;20.30;;;;;;;0.65;100.00;99663.92;106109;1312;23006;-49
2022/12/16 00:43:08;;;;;;;;;;;;;;;0.65;100.00;99663.65;106187;1309;139071;-49
2022/12/16 00:45:34;;;;;;;41.90;20.50;;;;;;;0.67;100.00;99662.52;106185;1310;22141;-49
2022/12/16 00:48:01;;;;;;;40.60;22.40;;;;;;;0.67;100.00;99662.80;106191;1295;138513;-49
2022/12/16 00:50:28;;;;;;;43.00;20.80;;;;;;;0.64;100.00;99660.45;106129;1303;22251;-49
2022/12/16 00:52:54;;;;;;;39.30;21.20;;;;;;;0.60;100.00;99660.77;106139;1303;22156;-50
2022/12/16 00:55:21;;;;;;;41.30;21.50;;;;;;;0.58;100.00;99662.02;105992;1296;139095;-49
2022/12/16 00:57:48;;;;;;;;;;;;;;;0.59;100.00;99656.39;106359;1302;22374;-49
2022/12/16 01:00:15;;;;;;;40.10;20.60;;;;;;;0.57;100.00;99646.80;106118;1309;124513;-49
2022/12/16 01:02:43;;;;;;;38.70;21.50;;;;;;;0.61;100.00;99646.10;106018;1312;22201;-49
2022/12/16 01:05:11;;;;;;;42.30;22.30;;;;;;;0.63;100.00;99645.42;106172;1309;23428;-49
2022/12/16 01:07:38;;;;;;;36.50;20.80;;;;;;;0.64;100.00;99648.58;106026;1297;139519;-49
2022/12/16 01:10:05;;;;;;;38.80;20.70;;;;;;;0.66;100.00;99653.42;106154;1312;22165;-49
2022/12/16 01:12:32;;;;;;;34.80;20.40;;;;;;;0.66;100.00;99661.92;106043;1311;138025;-49
2022/12/16 01:14:59;;;;;;;38.30;20.80;;;;;;;0.67;100.00;99661.65;106174;1310;22117;-49
2022/12/16 01:17:26;;;;;;;;;;;;;;;0.67;100.00;99669.11;106069;1304;138086;-53
2022/12/16 01:19:53;;;;;;;37.80;20.10;;;;;;;0.68;100.00;99677.46;106104;1312;22830;-49
2022/12/16 01:22:20;;;;;;;36.00;19.80;;;;;;;0.67;100.00;99664.40;106089;1311;22164;-49
2022/12/16 01:24:47;;;;;;;37.30;21.40;;;;;;;0.67;100.00;99674.59;106104;1296;138010;-49
2022/12/16 01:27:14;;;;;;;37.50;21.70;;;;;;;0.66;100.00;99682.14;106207;1309;22591;-49
2022/12/16 01:29:41;;;;;;;41.90;23.60;;;;;;;0.66;100.00;99687.54;106169;1294;139305;-49
2022/12/16 01:32:11;;;;;;;39.90;23.80;;;;;;;0.65;100.00;99692.10;106177;1301;22869;-49
2022/12/16 01:34:37;;;;;;;48.80;26.70;;;;;;;0.64;100.00;99695.84;106172;1309;22150;-49
2022/12/16 01:37:04;;;;;;;;;;;;;;;0.62;100.00;99703.91;106030;1309;137677;-49
2022/12/16 01:39:31;;;;;;;46.20;23.30;;;;;;;0.60;100.00;99708.62;105305;1312;25354;-49
2022/12/16 01:41:58;;;;;;;46.20;25.50;;;;;;;0.60;100.00;99709.73;101546;1311;138910;-48
2022/12/16 01:44:25;;;;;;;48.40;25.30;;;;;;;0.61;100.00;99712.30;101693;1295;23893;-48
2022/12/16 01:46:58;;;;;;;49.20;27.90;;;;;;;0.61;100.00;99712.42;101701;1295;22502;-48
2022/12/16 01:49:46;;;;;;;47.90;26.30;;;;;;;0.62;100.00;99712.89;106123;1307;138189;-49
2022/12/16 01:52:17;;;;;;;58.30;27.10;;;;;;;0.62;100.00;99715.58;106019;1310;23075;-49
2022/12/16 01:54:47;;;;;;;52.10;27.00;;;;;;;0.62;100.00;99718.25;105893;1309;137739;-49
2022/12/16 01:57:20;;;;;;;46.10;24.80;;;;;;;0.60;100.00;99720.29;106234;1309;22116;-49
2022/12/16 01:59:47;;;;;;;49.10;26.10;;;;;;;0.60;100.00;99722.27;106086;1304;137715;-49
2022/12/16 02:02:14;;;;;;;53.20;28.10;;;;;;;0.58;100.00;99726.09;106077;1305;22109;-50
2022/12/16 02:05:19;;;;;;;;;;;;;;;0.59;100.00;99726.13;106239;1312;23622;-49
2022/12/16 02:07:27;;;;;;;54.80;28.20;;;;;;;0.59;100.00;99724.65;106228;1304;123974;-49
2022/12/16 02:09:54;;;;;;;52.30;27.80;;;;;;;0.61;100.00;99721.42;106329;1309;22099;-49
2022/12/16 02:12:33;;;;;;;45.00;26.40;;;;;;;0.62;100.00;99724.85;105886;1310;138878;-49
2022/12/16 02:15:15;;;;;;;43.70;22.90;;;;;;;0.62;100.00;99722.88;106181;1304;22993;-49
2022/12/16 02:18:07;;;;;;;47.40;24.00;;;;;;;0.58;100.00;99720.11;106190;1309;138025;-49
2022/12/16 02:21:03;;;;;;;49.10;26.20;;;;;;;0.61;100.00;99729.92;106230;1304;22264;-49
2022/12/16 02:23:42;;;;;;;38.30;23.60;;;;;;;0.62;100.00;99731.24;106128;1309;139045;-49
2022/12/16 02:26:18;;;;;;;39.70;23.50;;;;;;;0.62;99.99;99734.34;106136;1307;22928;-49
2022/12/16 02:28:54;;;;;;;45.20;27.90;;;;;;;0.63;99.96;99734.89;106257;1304;23390;-49
2022/12/16 02:31:54;;;;;;;41.80;26.20;;;;;;;0.64;100.00;99736.06;106058;1307;137729;-49
2022/12/16 02:34:41;;;;;;;43.60;25.80;;;;;;;0.64;99.85;99737.64;106314;1301;22119;-49
2022/12/16 02:37:24;;;;;;;40.90;25.10;;;;;;;0.63;99.75;99736.51;106040;1309;138314;-49
2022/12/16 02:39:58;;;;;;;42.80;27.00;;;;;;;0.60;99.52;99731.67;104696;1295;22497;-49
2022/12/16 02:42:34;;;;;;;41.70;25.20;;;;;;;0.59;99.41;99726.66;106175;1309;137908;-49
2022/12/16 02:45:04;;;;;;;44.00;24.90;;;;;;;0.58;99.24;99715.48;106243;1309;23172;-49
2022/12/16 02:47:31;;;;;;;43.00;24.80;;;;;;;0.57;99.21;99718.83;106086;1301;138400;-49
2022/12/16 02:49:58;;;;;;;;;;;;;;;0.57;99.13;99721.92;105967;1306;22354;-49
2022/12/16 02:52:26;;;;;;;35.20;22.00;;;;;;;0.56;99.03;99720.77;106220;1309;22325;-49
2022/12/16 02:54:58;;;;;;;37.30;24.30;;;;;;;0.54;98.90;99714.96;105972;1303;137700;-49
2022/12/16 02:57:48;;;;;;;43.10;22.50;;;;;;;0.52;98.94;99714.84;106293;1309;22157;-49
2022/12/16 03:00:17;;;;;;;39.20;22.70;;;;;;;0.50;98.75;99710.58;105944;1309;137989;-49
2022/12/16 03:02:58;;;;;;;34.40;22.60;;;;;;;0.48;98.50;99713.31;106027;1309;23346;-49
2022/12/16 03:05:47;;;;;;;39.00;22.40;;;;;;;0.46;98.34;99717.20;105979;1307;22145;-49
2022/12/16 03:08:35;;;;;;;35.70;22.50;;;;;;;0.47;97.99;99714.70;106128;1307;22871;-49
2022/12/16 03:11:03;;;;;;;38.20;21.80;;;;;;;0.47;98.22;99711.20;106165;1309;22304;-49
2022/12/16 03:13:51;;;;;;;35.20;21.10;;;;;;;0.46;98.00;99710.93;106142;1303;138896;-50
2022/12/16 03:16:19;;;;;;;35.00;19.70;;;;;;;0.45;97.94;99719.66;106088;1309;22366;-49
2022/12/16 03:18:49;;;;;;;31.50;19.10;;;;;;;0.42;97.65;99716.43;106052;1309;137894;-49
2022/12/16 03:21:17;;;;;;;33.20;19.20;;;;;;;0.40;97.50;99717.77;106050;1309;23271;-49
2022/12/16 03:23:51;;;;;;;33.50;20.90;;;;;;;0.38;97.50;99712.67;106066;1309;138137;-49
2022/12/16 03:26:40;;;;;;;35.20;21.20;;;;;;;0.37;97.47;99707.91;106051;1309;22136;-49
2022/12/16 03:29:12;;;;;;;30.10;18.40;;;;;;;0.38;97.36;99706.10;105421;1303;22999;-49
2022/12/16 03:31:42;;;;;;;29.70;19.10;;;;;;;0.38;97.13;99700.30;105285;1318;139004;-49
2022/12/16 03:34:20;;;;;;;36.70;20.60;;;;;;;0.38;97.06;99700.83;105255;1318;22189;-49
2022/12/16 03:36:50;;;;;;;31.40;19.60;;;;;;;0.39;96.83;99702.54;105252;1318;137824;-49
2022/12/16 03:39:18;;;;;;;33.50;20.50;;;;;;;0.38;96.86;99700.00;105085;1311;26267;-49
2022/12/16 03:41:44;;;;;;;31.40;19.90;;;;;;;0.38;96.85;99695.05;100747;1315;137954;-49
2022/12/16 03:44:11;;;;;;;35.90;21.50;;;;;;;0.36;96.69;99699.48;100792;1310;24348;-49
2022/12/16 03:46:38;;;;;;;33.70;20.50;;;;;;;0.35;96.67;99698.69;100775;1325;23912;-48
2022/12/16 03:49:05;;;;;;;;;;;;;;;0.35;96.61;99696.95;100929;1303;138034;-48
2022/12/16 03:51:32;;;;;;;36.30;22.00;;;;;;;0.34;96.68;99704.06;100961;1309;24369;-48
2022/12/16 03:53:58;;;;;;;43.40;24.50;;;;;;;0.32;96.78;99707.02;100693;1302;139758;-48
2022/12/16 03:56:25;;;;;;;;;;;;;;;0.31;96.58;99717.93;100939;1310;23079;-48
2022/12/16 03:58:52;;;;;;;37.70;22.50;;;;;;;0.31;96.80;99727.28;101009;1296;25273;-49
2022/12/16 04:01:18;;;;;;;41.20;24.50;;;;;;;0.30;96.83;99722.56;100906;1310;137921;-48
2022/12/16 04:03:45;;;;;;;43.50;26.20;;;;;;;0.28;96.70;99722.23;104842;1319;23114;-49
2022/12/16 04:06:17;;;;;;;;;;;;;;;0.27;96.94;99724.20;105583;1309;138170;-49
2022/12/16 04:08:45;;;;;;;42.50;26.10;;;;;;;0.25;97.02;99725.86;106119;1312;22108;-49
2022/12/16 04:25:23;;;;;;;42.80;24.50;;;;;;;0.26;97.81;99722.91;106006;1305;138900;-48
2022/12/16 04:27:49;;;;;;;40.20;22.80;;;;;;;0.27;97.89;99726.67;105880;1312;22116;-48
2022/12/16 04:30:20;;;;;;;42.50;23.80;;;;;;;0.26;97.92;99726.75;106060;1309;138252;-48
